This is the latest recevied weather packets stored in our database for station/object WC4PEM-12. If no packets are shown the sender has not sent any weather packets the latest 10 day(s).
| Time | Temp. | Humidity | Pressure | Rain* | Wind** | Luminosity | Snow |
|---|---|---|---|---|---|---|---|
| 1777329199 | 27.78° C | 64% | 1016.1 hPa | 0 mm | - | - | - |
| 1777329087 | 27.78° C | 64% | 1016.1 hPa | 0 mm | - | - | - |
| 1777328899 | 27.78° C | 64% | 1016.1 hPa | 0 mm | - | - | - |
| 1777328790 | 27.78° C | 63% | 1016.1 hPa | 0 mm | - | - | - |
| 1777328749 | 28.89° C | 62% | 1016.1 hPa | 0 mm | - | - | - |
| 1777328599 | 27.78° C | 63% | 1016.1 hPa | 0 mm | - | - | - |
| 1777328299 | 28.33° C | 63% | 1015.9 hPa | 0 mm | - | - | - |
| 1777328184 | 28.89° C | 62% | 1016.1 hPa | 0 mm | - | - | - |
| 1777327999 | 28.89° C | 62% | 1016.1 hPa | 0 mm | - | - | - |
| 1777327843 | 28.89° C | 62% | 1016.1 hPa | 0 mm | - | - | - |
| 1777327699 | 28.89° C | 62% | 1016.1 hPa | 0 mm | - | - | - |
| 1777327614 | 28.89° C | 61% | 1016 hPa | 0 mm | - | - | - |
| 1777327606 | 28.89° C | 59% | 1016.1 hPa | 0 mm | - | - | - |
| 1777327399 | 28.89° C | 61% | 1016 hPa | 0 mm | - | - | - |
| 1777327099 | 28.89° C | 59% | 1016.1 hPa | 0 mm | - | - | - |
| 1777327051 | 30.56° C | 57% | 1015.6 hPa | 0 mm | - | - | - |
| 1777327018 | 28.89° C | 59% | 1016 hPa | 0 mm | - | - | - |
| 1777326799 | 28.89° C | 59% | 1016 hPa | 0 mm | - | - | - |
| 1777326499 | 29.44° C | 59% | 1015.9 hPa | 0 mm | - | - | - |
| 1777326199 | 29.44° C | 59% | 1015.8 hPa | 0 mm | - | - | - |
| 1777325899 | 29.44° C | 60% | 1015.9 hPa | 0 mm | - | - | - |
| 1777325599 | 30° C | 59% | 1015.8 hPa | 0 mm | - | - | - |
| 1777325299 | 30° C | 60% | 1015.9 hPa | 0 mm | - | - | - |
| 1777324999 | 30° C | 60% | 1015.6 hPa | 0 mm | - | - | - |
| 1777324873 | 30° C | 58% | 1015.6 hPa | 0 mm | - | - | - |
* Rain latest hour (hover to see other rain measurements)
** Current wind speed in m/s (hover to see current wind gust speed)